createdAt,value
2018-05-19T00:00:14.799Z,8.1
2018-05-19T00:01:15.517Z,8.1
2018-05-19T00:02:16.228Z,8.1
2018-05-19T00:03:17.021Z,8.1
2018-05-19T00:04:17.973Z,8.0
2018-05-19T00:05:18.685Z,7.9
2018-05-19T00:06:19.406Z,8.1
2018-05-19T00:07:20.126Z,8.0
2018-05-19T00:08:20.840Z,7.9
2018-05-19T00:09:21.634Z,7.9
2018-05-19T00:10:22.335Z,8.0
2018-05-19T00:11:23.055Z,7.9
2018-05-19T00:12:23.775Z,7.9
2018-05-19T00:13:24.754Z,7.9
2018-05-19T00:14:25.466Z,7.9
2018-05-19T00:15:26.205Z,7.8
2018-05-19T00:16:26.974Z,7.8
2018-05-19T00:17:27.696Z,7.8
2018-05-19T00:18:28.413Z,7.7
2018-05-19T00:19:29.134Z,7.8
2018-05-19T00:20:29.859Z,7.7
2018-05-19T00:21:30.581Z,7.6
2018-05-19T00:22:31.303Z,7.6
2018-05-19T00:23:32.029Z,7.6
2018-05-19T00:24:32.749Z,7.5
2018-05-19T00:25:33.467Z,7.6
2018-05-19T00:26:34.186Z,7.6
2018-05-19T00:27:34.903Z,7.6
2018-05-19T00:28:35.626Z,7.5
2018-05-19T00:29:36.340Z,7.5
2018-05-19T00:30:37.060Z,7.5
2018-05-19T00:31:37.784Z,7.4
2018-05-19T00:32:38.506Z,7.4
2018-05-19T00:33:39.216Z,7.4
2018-05-19T00:34:39.954Z,7.5
2018-05-19T00:35:40.674Z,7.4
2018-05-19T00:36:41.736Z,7.4
2018-05-19T00:37:42.455Z,7.4
2018-05-19T00:38:43.181Z,7.4
2018-05-19T00:39:43.901Z,7.3
2018-05-19T00:40:44.629Z,7.3
2018-05-19T00:41:45.447Z,7.4
2018-05-19T00:42:46.171Z,7.3
2018-05-19T00:43:46.883Z,7.4
2018-05-19T00:44:47.603Z,7.4
2018-05-19T00:45:48.314Z,7.4
2018-05-19T00:46:49.033Z,7.4
2018-05-19T00:47:49.747Z,7.3
2018-05-19T00:48:50.565Z,7.3
2018-05-19T00:49:51.279Z,7.2
2018-05-19T00:50:51.993Z,7.2
2018-05-19T00:51:52.705Z,7.2
2018-05-19T00:52:53.436Z,7.2
2018-05-19T00:53:54.207Z,7.2
2018-05-19T00:54:54.938Z,7.3
2018-05-19T00:55:55.665Z,7.2
2018-05-19T00:56:56.378Z,7.0
2018-05-19T00:57:57.098Z,7.1
2018-05-19T00:58:58.175Z,7.0
2018-05-19T00:59:58.886Z,7.1
2018-05-19T01:00:59.853Z,7.1
2018-05-19T01:02:00.850Z,7.2
2018-05-19T01:03:01.577Z,7.0
2018-05-19T01:04:02.396Z,7.0
2018-05-19T01:05:03.123Z,7.1
2018-05-19T01:06:03.838Z,6.9
2018-05-19T01:07:04.563Z,7.0
2018-05-19T01:08:05.286Z,7.0
2018-05-19T01:09:06.161Z,7.0
2018-05-19T01:10:06.882Z,7.0
2018-05-19T01:11:07.605Z,7.0
2018-05-19T01:12:08.319Z,7.0
2018-05-19T01:13:09.306Z,6.9
2018-05-19T01:14:10.017Z,6.9
2018-05-19T01:15:10.883Z,6.9
2018-05-19T01:16:11.603Z,6.9
2018-05-19T01:17:12.318Z,7.0
2018-05-19T01:18:13.035Z,6.9
2018-05-19T01:19:13.750Z,6.9
2018-05-19T01:20:14.584Z,6.9
2018-05-19T01:21:15.292Z,6.9
2018-05-19T01:22:16.023Z,6.9
2018-05-19T01:23:16.738Z,6.9
2018-05-19T01:24:17.452Z,6.8
2018-05-19T01:25:18.214Z,6.7
2018-05-19T01:26:18.934Z,6.8
2018-05-19T01:27:19.648Z,6.9
2018-05-19T01:28:20.364Z,6.8
2018-05-19T01:29:21.078Z,6.8
2018-05-19T01:30:21.892Z,6.8
2018-05-19T01:31:22.575Z,6.7
2018-05-19T01:32:23.291Z,6.7
2018-05-19T01:33:24.259Z,6.7
2018-05-19T01:34:24.979Z,6.8
2018-05-19T01:35:26.103Z,6.8
2018-05-19T01:36:26.813Z,6.7
2018-05-19T01:37:27.536Z,6.6
2018-05-19T01:38:28.249Z,6.6
2018-05-19T01:39:28.956Z,6.7
2018-05-19T01:40:29.674Z,6.6
2018-05-19T01:41:30.387Z,6.6
2018-05-19T01:42:31.097Z,6.7
2018-05-19T01:43:31.813Z,6.7
2018-05-19T01:44:32.541Z,6.6
2018-05-19T01:45:33.251Z,6.6
2018-05-19T01:46:33.969Z,6.6
2018-05-19T01:47:34.667Z,6.6
2018-05-19T01:48:35.384Z,6.5
2018-05-19T01:49:36.114Z,6.5
2018-05-19T01:50:36.929Z,6.4
2018-05-19T01:51:37.656Z,6.5
2018-05-19T01:52:38.369Z,6.5
2018-05-19T01:53:39.095Z,6.5
2018-05-19T01:54:39.806Z,6.5
2018-05-19T01:55:40.590Z,6.4
2018-05-19T01:56:41.237Z,6.3
2018-05-19T01:57:41.966Z,6.3
2018-05-19T01:58:42.680Z,6.3
2018-05-19T01:59:43.402Z,6.3
2018-05-19T02:00:44.118Z,6.3
2018-05-19T02:01:44.819Z,6.3
2018-05-19T02:02:45.652Z,6.3
2018-05-19T02:03:46.415Z,6.2
2018-05-19T02:04:47.133Z,6.2
2018-05-19T02:05:47.844Z,6.2
2018-05-19T02:06:48.596Z,6.2
2018-05-19T02:07:49.309Z,6.2
2018-05-19T02:08:50.074Z,6.2
2018-05-19T02:09:50.788Z,6.2
2018-05-19T02:10:52.039Z,6.1
2018-05-19T02:11:52.741Z,6.1
2018-05-19T02:12:53.465Z,6.0
2018-05-19T02:13:54.187Z,6.1
2018-05-19T02:14:54.904Z,6.2
2018-05-19T02:15:55.629Z,6.1
2018-05-19T02:16:56.332Z,6.1
2018-05-19T02:17:57.053Z,6.0
2018-05-19T02:18:57.915Z,6.1
2018-05-19T02:19:58.628Z,6.0
2018-05-19T02:20:59.350Z,6.0
2018-05-19T02:22:00.069Z,6.0
2018-05-19T02:23:00.774Z,6.0
2018-05-19T02:24:01.657Z,6.0
2018-05-19T02:25:02.374Z,5.9
2018-05-19T02:26:03.091Z,5.9
2018-05-19T02:27:03.804Z,6.0
2018-05-19T02:28:04.521Z,5.9
2018-05-19T02:29:05.236Z,5.9
2018-05-19T02:30:05.957Z,6.0
2018-05-19T02:31:06.672Z,5.9
2018-05-19T02:32:07.386Z,5.9
2018-05-19T02:33:08.102Z,5.9
2018-05-19T02:34:08.821Z,5.8
2018-05-19T02:35:09.533Z,5.8
2018-05-19T02:36:10.607Z,5.8
2018-05-19T02:37:11.320Z,5.8
2018-05-19T02:38:12.282Z,5.8
2018-05-19T02:39:12.989Z,5.7
2018-05-19T02:40:13.700Z,5.7
2018-05-19T02:41:14.524Z,5.7
2018-05-19T02:42:15.236Z,5.7
2018-05-19T02:43:15.955Z,5.7
2018-05-19T02:44:16.671Z,5.7
2018-05-19T02:45:17.394Z,5.7
2018-05-19T02:46:18.454Z,5.7
2018-05-19T02:47:19.175Z,5.7
2018-05-19T02:48:19.887Z,5.6
2018-05-19T02:49:20.617Z,5.7
2018-05-19T02:50:21.346Z,5.7
2018-05-19T02:51:22.108Z,5.7
2018-05-19T02:52:22.827Z,5.6
2018-05-19T02:53:23.551Z,5.7
2018-05-19T02:54:24.283Z,5.6
2018-05-19T02:55:25.012Z,5.6
2018-05-19T02:56:25.881Z,5.6
2018-05-19T02:57:26.619Z,5.6
2018-05-19T02:58:27.327Z,5.5
2018-05-19T02:59:28.044Z,5.5
2018-05-19T03:00:29.291Z,5.5
2018-05-19T03:01:30.030Z,5.6
2018-05-19T03:02:30.742Z,5.6
2018-05-19T03:03:31.462Z,5.6
2018-05-19T03:04:32.180Z,5.6
2018-05-19T03:05:32.892Z,5.5
2018-05-19T03:06:33.611Z,5.6
2018-05-19T03:07:34.336Z,5.5
2018-05-19T03:08:35.065Z,5.4
2018-05-19T03:09:35.772Z,5.5
2018-05-19T03:10:36.502Z,5.4
2018-05-19T03:11:37.221Z,5.3
2018-05-19T03:12:37.943Z,5.5
2018-05-19T03:13:38.987Z,5.5
2018-05-19T03:14:39.744Z,5.5
2018-05-19T03:15:40.464Z,5.5
2018-05-19T03:16:41.189Z,5.4
2018-05-19T03:17:41.904Z,5.5
2018-05-19T03:18:43.293Z,5.5
2018-05-19T03:19:44.365Z,5.4
2018-05-19T03:20:45.080Z,5.5
2018-05-19T03:21:45.805Z,5.4
2018-05-19T03:22:46.535Z,5.4
2018-05-19T03:23:47.510Z,5.4
2018-05-19T03:24:48.225Z,5.5
2018-05-19T03:25:48.943Z,5.4
2018-05-19T03:26:49.663Z,5.4
2018-05-19T03:27:50.392Z,5.5
2018-05-19T03:28:51.118Z,5.4
2018-05-19T03:29:51.842Z,5.4
2018-05-19T03:30:52.560Z,5.4
2018-05-19T03:31:53.334Z,5.5
2018-05-19T03:32:54.076Z,5.4
2018-05-19T03:33:54.774Z,5.3
2018-05-19T03:34:55.499Z,5.3
2018-05-19T03:35:56.243Z,5.4
2018-05-19T03:36:56.949Z,5.4
2018-05-19T03:37:57.994Z,5.4
2018-05-19T03:38:58.711Z,5.4
2018-05-19T03:39:59.438Z,5.5
2018-05-19T03:41:00.153Z,5.4
2018-05-19T03:42:00.872Z,5.6
2018-05-19T03:43:01.590Z,5.4
2018-05-19T03:44:02.360Z,5.4
2018-05-19T03:45:03.343Z,5.4
2018-05-19T03:46:04.064Z,5.4
2018-05-19T03:47:04.781Z,5.4
2018-05-19T03:48:05.502Z,5.4
2018-05-19T03:49:06.285Z,5.3
2018-05-19T03:50:07.002Z,5.3
2018-05-19T03:51:07.709Z,5.4
2018-05-19T03:52:08.439Z,5.4
2018-05-19T03:53:09.166Z,5.4
2018-05-19T03:54:09.877Z,5.4
2018-05-19T03:55:10.841Z,5.4
2018-05-19T03:56:11.568Z,5.4
2018-05-19T03:57:12.556Z,5.5
2018-05-19T03:58:13.263Z,5.4
2018-05-19T03:59:13.973Z,5.5
2018-05-19T04:00:14.700Z,5.4
2018-05-19T04:01:15.412Z,5.4
2018-05-19T04:02:16.141Z,5.5
2018-05-19T04:03:17.100Z,5.5
2018-05-19T04:04:17.815Z,5.5
2018-05-19T04:05:18.543Z,5.6
2018-05-19T04:06:19.251Z,5.5
2018-05-19T04:07:19.980Z,5.6
2018-05-19T04:08:20.691Z,5.6
2018-05-19T04:09:21.405Z,5.6
2018-05-19T04:10:22.124Z,5.6
2018-05-19T04:11:22.856Z,5.6
2018-05-19T04:12:23.569Z,5.6
2018-05-19T04:13:24.896Z,5.6
2018-05-19T04:14:25.667Z,5.6
2018-05-19T04:15:26.336Z,5.6
2018-05-19T04:16:27.047Z,5.6
2018-05-19T04:17:27.770Z,5.7
2018-05-19T04:18:28.609Z,5.7
2018-05-19T04:19:29.328Z,5.6
2018-05-19T04:20:30.055Z,5.7
2018-05-19T04:21:30.775Z,5.7
2018-05-19T04:22:31.750Z,5.7
2018-05-19T04:23:32.471Z,5.7
2018-05-19T04:24:33.290Z,5.7
2018-05-19T04:25:34.012Z,5.7
2018-05-19T04:26:34.733Z,5.7
2018-05-19T04:27:35.445Z,5.8
2018-05-19T04:28:36.158Z,5.7
2018-05-19T04:29:36.972Z,5.8
2018-05-19T04:30:37.946Z,5.9
2018-05-19T04:31:38.911Z,6.0
2018-05-19T04:32:39.627Z,6.0
2018-05-19T04:33:40.345Z,6.2
2018-05-19T04:34:41.119Z,6.1
2018-05-19T04:35:41.834Z,6.2
2018-05-19T04:36:42.797Z,6.3
2018-05-19T04:37:43.517Z,6.3
2018-05-19T04:38:44.237Z,6.3
2018-05-19T04:39:44.956Z,6.5
2018-05-19T04:40:45.671Z,6.5
2018-05-19T04:41:46.451Z,6.6
2018-05-19T04:42:47.107Z,6.6
2018-05-19T04:43:47.823Z,6.7
2018-05-19T04:44:48.553Z,6.8
2018-05-19T04:45:49.276Z,6.8
2018-05-19T04:46:50.148Z,6.8
2018-05-19T04:47:50.871Z,6.9
2018-05-19T04:48:51.583Z,7.0
2018-05-19T04:49:52.559Z,7.0
2018-05-19T04:50:53.293Z,7.1
2018-05-19T04:51:54.055Z,7.0
2018-05-19T04:52:54.780Z,7.2
2018-05-19T04:53:55.504Z,7.3
2018-05-19T04:54:56.472Z,7.3
2018-05-19T04:55:57.184Z,7.4
2018-05-19T04:56:57.971Z,7.3
2018-05-19T04:57:58.618Z,7.3
2018-05-19T04:58:59.327Z,7.4
2018-05-19T05:00:00.060Z,7.4
2018-05-19T05:01:00.777Z,7.5
2018-05-19T05:02:01.511Z,7.5
2018-05-19T05:03:02.233Z,7.4
2018-05-19T05:04:03.034Z,7.6
2018-05-19T05:05:03.676Z,7.5
2018-05-19T05:06:04.395Z,7.6
2018-05-19T05:07:05.271Z,7.7
2018-05-19T05:08:05.995Z,7.7
2018-05-19T05:09:06.708Z,7.8
2018-05-19T05:10:07.431Z,7.8
2018-05-19T05:11:08.408Z,7.8
2018-05-19T05:12:09.386Z,7.9
2018-05-19T05:13:10.098Z,7.9
2018-05-19T05:14:10.819Z,8.0
2018-05-19T05:15:11.540Z,8.0
2018-05-19T05:16:12.320Z,8.2
2018-05-19T05:17:13.041Z,8.2
2018-05-19T05:18:14.011Z,8.4
2018-05-19T05:19:14.721Z,8.5
2018-05-19T05:20:15.694Z,8.5
2018-05-19T05:21:16.407Z,8.7
2018-05-19T05:22:17.376Z,8.9
2018-05-19T05:23:18.104Z,9.1
2018-05-19T05:24:18.824Z,9.3
2018-05-19T05:25:19.552Z,9.5
2018-05-19T05:26:20.265Z,9.7
2018-05-19T05:27:21.035Z,9.8
2018-05-19T05:28:21.760Z,10.0
2018-05-19T05:29:22.733Z,10.2
2018-05-19T05:30:23.449Z,10.3
2018-05-19T05:31:24.176Z,10.4
2018-05-19T05:32:24.903Z,10.7
2018-05-19T05:33:25.630Z,10.7
2018-05-19T05:34:26.343Z,10.8
2018-05-19T05:35:27.317Z,10.7
2018-05-19T05:36:28.061Z,10.8
2018-05-19T05:37:28.778Z,10.7
2018-05-19T05:38:29.745Z,10.7
2018-05-19T05:39:30.474Z,10.6
2018-05-19T05:40:31.199Z,10.4
2018-05-19T05:41:31.965Z,10.3
2018-05-19T05:42:32.944Z,10.3
2018-05-19T05:43:33.675Z,10.2
2018-05-19T05:44:34.395Z,10.2
2018-05-19T05:45:35.121Z,10.2
2018-05-19T05:46:36.005Z,10.2
2018-05-19T05:47:36.995Z,10.2
2018-05-19T05:48:37.714Z,10.2
2018-05-19T05:49:38.443Z,10.2
2018-05-19T05:50:39.158Z,10.3
2018-05-19T05:51:39.893Z,10.2
2018-05-19T05:52:40.639Z,10.2
2018-05-19T05:53:41.380Z,10.3
2018-05-19T05:54:42.100Z,10.2
2018-05-19T05:55:42.826Z,10.3
2018-05-19T05:56:43.556Z,10.3
2018-05-19T05:57:44.432Z,10.4
2018-05-19T05:58:45.165Z,10.5
2018-05-19T05:59:45.875Z,10.7
2018-05-19T06:00:46.607Z,10.8
2018-05-19T06:01:47.322Z,10.9
2018-05-19T06:02:48.174Z,11.0
2018-05-19T06:03:48.900Z,11.1
2018-05-19T06:04:49.672Z,11.3
2018-05-19T06:05:50.397Z,11.3
2018-05-19T06:06:51.152Z,11.4
2018-05-19T06:07:51.888Z,11.5
2018-05-19T06:08:52.609Z,11.5
2018-05-19T06:09:53.381Z,11.5
2018-05-19T06:10:54.506Z,11.6
2018-05-19T06:11:55.289Z,11.6
2018-05-19T06:12:56.001Z,11.6
2018-05-19T06:13:56.999Z,11.6
2018-05-19T06:14:57.868Z,11.6
2018-05-19T06:15:58.591Z,11.7
2018-05-19T06:16:59.323Z,11.6
2018-05-19T06:18:00.097Z,11.7
2018-05-19T06:19:00.921Z,11.8
2018-05-19T06:20:01.699Z,11.8
2018-05-19T06:21:02.675Z,11.8
2018-05-19T06:22:03.393Z,11.8
2018-05-19T06:23:04.142Z,11.8
2018-05-19T06:24:04.865Z,11.9
2018-05-19T06:25:05.694Z,12.0
2018-05-19T06:26:06.375Z,12.0
2018-05-19T06:27:07.352Z,12.1
2018-05-19T06:28:08.082Z,12.1
2018-05-19T06:29:08.817Z,12.2
2018-05-19T06:30:09.584Z,12.2
2018-05-19T06:31:10.297Z,12.4
2018-05-19T06:32:11.027Z,12.3
2018-05-19T06:33:12.009Z,12.4
2018-05-19T06:34:13.002Z,12.4
2018-05-19T06:35:13.721Z,12.3
2018-05-19T06:36:14.456Z,12.4
2018-05-19T06:37:15.179Z,12.5
2018-05-19T06:38:15.986Z,12.5
2018-05-19T06:39:16.640Z,12.5
2018-05-19T06:40:17.361Z,12.5
2018-05-19T06:41:18.082Z,12.5
2018-05-19T06:42:18.809Z,12.6
2018-05-19T06:43:19.539Z,12.5
2018-05-19T06:44:20.259Z,12.6
2018-05-19T06:45:21.335Z,12.5
2018-05-19T06:46:22.110Z,12.5
2018-05-19T06:47:22.833Z,12.6
2018-05-19T06:48:23.605Z,12.5
2018-05-19T06:49:25.258Z,12.6
2018-05-19T06:50:25.974Z,12.6
2018-05-19T06:51:26.694Z,12.7
2018-05-19T06:52:27.414Z,12.9
2018-05-19T06:53:28.143Z,12.9
2018-05-19T06:54:29.865Z,12.9
2018-05-19T06:55:30.588Z,12.9
2018-05-19T06:56:31.305Z,13.0
2018-05-19T06:57:32.042Z,13.1
2018-05-19T06:58:32.754Z,13.3
2018-05-19T06:59:33.483Z,13.4
2018-05-19T07:00:34.639Z,13.5
2018-05-19T07:01:35.366Z,13.6
2018-05-19T07:02:36.312Z,13.7
2018-05-19T07:03:36.985Z,13.9
2018-05-19T07:04:37.974Z,13.9
2018-05-19T07:05:38.689Z,14.1
2018-05-19T07:06:39.424Z,14.2
2018-05-19T07:07:40.156Z,14.4
2018-05-19T07:08:40.877Z,14.4
2018-05-19T07:09:41.657Z,14.3
2018-05-19T07:10:42.385Z,14.3
2018-05-19T07:11:43.113Z,14.5
2018-05-19T07:12:43.845Z,14.7
2018-05-19T07:13:44.565Z,14.7
2018-05-19T07:14:45.296Z,14.9
2018-05-19T07:15:46.018Z,15.0
2018-05-19T07:16:47.430Z,15.1
2018-05-19T07:17:48.146Z,15.3
2018-05-19T07:18:48.869Z,15.3
2018-05-19T07:19:49.593Z,15.6
2018-05-19T07:20:50.328Z,15.7
2018-05-19T07:21:51.449Z,15.7
2018-05-19T07:22:52.177Z,15.6
2018-05-19T07:23:52.902Z,15.6
2018-05-19T07:24:53.629Z,15.5
2018-05-19T07:25:54.350Z,15.6
2018-05-19T07:26:55.321Z,15.6
2018-05-19T07:27:56.294Z,15.8
2018-05-19T07:28:57.063Z,16.4
2018-05-19T07:29:57.791Z,16.6
2018-05-19T07:30:58.762Z,16.4
2018-05-19T07:31:59.493Z,16.4
2018-05-19T07:33:00.329Z,16.3
2018-05-19T07:34:01.304Z,16.3
2018-05-19T07:35:02.042Z,16.3
2018-05-19T07:36:02.786Z,16.3
2018-05-19T07:37:03.506Z,16.2
2018-05-19T07:38:04.233Z,16.1
2018-05-19T07:39:04.960Z,16.1
2018-05-19T07:40:05.690Z,15.8
2018-05-19T07:41:06.704Z,15.7
2018-05-19T07:42:07.422Z,15.7
2018-05-19T07:43:08.147Z,15.9
2018-05-19T07:44:08.878Z,15.7
2018-05-19T07:45:09.612Z,15.7
2018-05-19T07:46:10.339Z,15.9
2018-05-19T07:47:11.078Z,15.9
2018-05-19T07:48:12.264Z,16.2
2018-05-19T07:49:12.998Z,16.2
2018-05-19T07:50:13.725Z,16.2
2018-05-19T07:51:14.995Z,16.2
2018-05-19T07:52:15.718Z,16.2
2018-05-19T07:53:16.457Z,16.3
2018-05-19T07:54:17.186Z,16.5
2018-05-19T07:55:17.981Z,17.0
2018-05-19T07:56:18.708Z,16.9
2018-05-19T07:57:19.715Z,17.0
2018-05-19T07:58:20.446Z,16.9
2018-05-19T07:59:21.252Z,17.1
2018-05-19T08:00:21.973Z,17.1
2018-05-19T08:01:22.702Z,17.1
2018-05-19T08:02:23.435Z,17.3
2018-05-19T08:03:24.405Z,17.8
2018-05-19T08:04:25.222Z,18.5
2018-05-19T08:05:25.864Z,19.2
2018-05-19T08:06:26.600Z,19.7
2018-05-19T08:07:27.337Z,19.6
2018-05-19T08:08:28.065Z,19.6
2018-05-19T08:09:29.132Z,20.0
2018-05-19T08:10:29.878Z,20.1
2018-05-19T08:11:30.610Z,19.8
2018-05-19T08:12:31.394Z,19.7
2018-05-19T08:13:32.090Z,19.5
2018-05-19T08:14:32.816Z,19.2
2018-05-19T08:15:33.546Z,19.1
2018-05-19T08:16:34.280Z,19.2
2018-05-19T08:17:35.009Z,19.3
2018-05-19T08:18:35.740Z,19.6
2018-05-19T08:19:36.486Z,19.6
2018-05-19T08:20:37.215Z,19.6
2018-05-19T08:21:37.950Z,19.8
2018-05-19T08:22:38.710Z,19.8
2018-05-19T08:23:39.437Z,20.0
2018-05-19T08:24:40.169Z,19.8
2018-05-19T08:25:41.308Z,19.6
2018-05-19T08:26:42.045Z,19.1
2018-05-19T08:27:42.778Z,19.0
2018-05-19T08:28:43.536Z,18.7
2018-05-19T08:29:44.255Z,18.7
2018-05-19T08:30:45.033Z,18.7
2018-05-19T08:31:45.753Z,18.8
2018-05-19T08:32:46.490Z,18.8
2018-05-19T08:33:47.224Z,18.5
2018-05-19T08:34:47.959Z,18.6
2018-05-19T08:35:48.788Z,18.8
2018-05-19T08:36:49.779Z,18.8
2018-05-19T08:37:50.503Z,19.1
2018-05-19T08:38:51.247Z,19.1
2018-05-19T08:39:51.969Z,19.2
2018-05-19T08:40:53.048Z,19.4
2018-05-19T08:41:53.784Z,19.5
2018-05-19T08:42:54.765Z,19.6
2018-05-19T08:43:55.758Z,19.8
2018-05-19T08:44:56.487Z,19.9
2018-05-19T08:45:57.269Z,20.0
2018-05-19T08:46:57.997Z,20.2
2018-05-19T08:47:58.719Z,20.1
2018-05-19T08:48:59.446Z,19.9
2018-05-19T08:50:00.180Z,19.9
2018-05-19T08:51:00.910Z,19.8
2018-05-19T08:52:01.900Z,20.2
2018-05-19T08:53:02.645Z,20.4
2018-05-19T08:54:03.379Z,20.6
2018-05-19T08:55:04.117Z,20.8
2018-05-19T08:56:04.850Z,20.8
2018-05-19T08:57:05.618Z,20.6
2018-05-19T08:58:06.372Z,20.4
2018-05-19T08:59:07.093Z,20.3
2018-05-19T09:00:07.826Z,20.2
2018-05-19T09:01:08.558Z,20.4
2018-05-19T09:02:09.686Z,20.3
2018-05-19T09:03:10.427Z,20.5
2018-05-19T09:04:11.414Z,20.8
2018-05-19T09:05:12.170Z,21.1
2018-05-19T09:06:12.906Z,21.2
2018-05-19T09:07:13.736Z,21.2
2018-05-19T09:08:14.467Z,21.2
2018-05-19T09:09:15.201Z,21.2
2018-05-19T09:10:15.940Z,21.2
2018-05-19T09:11:16.895Z,21.0
2018-05-19T09:12:17.785Z,21.2
2018-05-19T09:13:18.521Z,21.3
2018-05-19T09:14:19.253Z,21.1
2018-05-19T09:15:19.983Z,20.8
2018-05-19T09:16:20.707Z,20.9
2018-05-19T09:17:21.549Z,20.7
2018-05-19T09:18:22.292Z,20.5
2018-05-19T09:19:23.016Z,20.4
2018-05-19T09:20:23.742Z,20.4
2018-05-19T09:21:24.475Z,20.2
2018-05-19T09:22:25.513Z,20.0
2018-05-19T09:23:26.233Z,20.0
2018-05-19T09:24:26.963Z,20.0
2018-05-19T09:25:27.685Z,20.0
2018-05-19T09:26:28.414Z,20.1
2018-05-19T09:27:29.156Z,20.3
2018-05-19T09:28:29.938Z,20.7
2018-05-19T09:29:30.676Z,21.0
2018-05-19T09:30:31.673Z,21.1
2018-05-19T09:31:32.399Z,21.0
2018-05-19T09:32:33.129Z,20.9
2018-05-19T09:33:33.920Z,20.6
2018-05-19T09:34:34.893Z,20.9
2018-05-19T09:35:35.679Z,21.2
2018-05-19T09:36:36.368Z,21.4
2018-05-19T09:37:37.140Z,21.4
2018-05-19T09:38:37.859Z,21.3
2018-05-19T09:39:38.836Z,21.4
2018-05-19T09:40:39.573Z,21.6
2018-05-19T09:41:40.309Z,21.6
2018-05-19T09:42:41.052Z,21.8
2018-05-19T09:43:41.788Z,21.8
2018-05-19T09:44:42.777Z,22.0
2018-05-19T09:45:43.503Z,21.9
2018-05-19T09:46:44.228Z,22.1
2018-05-19T09:47:45.062Z,21.8
2018-05-19T09:48:45.681Z,21.9
2018-05-19T09:49:46.664Z,22.2
2018-05-19T09:50:47.394Z,22.3
2018-05-19T09:51:48.130Z,22.2
2018-05-19T09:52:48.860Z,22.4
2018-05-19T09:53:49.590Z,22.7
2018-05-19T09:54:50.324Z,22.5
2018-05-19T09:55:51.306Z,22.8
2018-05-19T09:56:52.041Z,22.7
2018-05-19T09:57:52.769Z,23.1
2018-05-19T09:58:53.511Z,23.3
2018-05-19T09:59:54.283Z,23.6
2018-05-19T10:00:55.024Z,23.8
2018-05-19T10:01:55.755Z,24.0
2018-05-19T10:02:56.483Z,23.7
2018-05-19T10:03:57.230Z,23.0
2018-05-19T10:04:58.058Z,23.2
2018-05-19T10:05:58.700Z,23.3
2018-05-19T10:06:59.435Z,23.2
2018-05-19T10:08:00.328Z,23.3
2018-05-19T10:09:01.062Z,21.6
2018-05-19T10:10:01.807Z,21.5
2018-05-19T10:11:03.958Z,21.5
2018-05-19T10:12:04.847Z,21.6
2018-05-19T10:13:05.635Z,21.6
2018-05-19T10:14:06.364Z,21.3
2018-05-19T10:15:07.108Z,21.1
2018-05-19T10:16:07.833Z,21.3
2018-05-19T10:17:08.838Z,21.2
2018-05-19T10:18:09.568Z,21.0
2018-05-19T10:19:10.291Z,21.0
2018-05-19T10:20:11.037Z,20.8
2018-05-19T10:21:11.776Z,20.8
2018-05-19T10:22:12.507Z,20.5
2018-05-19T10:23:13.515Z,20.4
2018-05-19T10:24:14.466Z,20.5
2018-05-19T10:25:15.197Z,20.5
2018-05-19T10:26:15.924Z,20.8
2018-05-19T10:27:16.664Z,21.2
2018-05-19T10:28:17.437Z,21.5
2018-05-19T10:29:18.150Z,22.0
2018-05-19T10:30:18.890Z,22.5
2018-05-19T10:31:19.668Z,23.0
2018-05-19T10:32:20.406Z,23.5
2018-05-19T10:33:21.396Z,23.2
2018-05-19T10:34:22.145Z,23.5
2018-05-19T10:35:22.961Z,23.9
2018-05-19T10:36:24.004Z,23.9
2018-05-19T10:37:24.747Z,23.9
2018-05-19T10:38:25.480Z,23.4
2018-05-19T10:39:26.210Z,23.1
2018-05-19T10:40:26.951Z,23.1
2018-05-19T10:41:27.690Z,23.0
2018-05-19T10:42:28.540Z,22.7
2018-05-19T10:43:29.301Z,22.7
2018-05-19T10:44:30.039Z,22.8
2018-05-19T10:45:30.767Z,22.7
2018-05-19T10:46:31.505Z,22.7
2018-05-19T10:47:32.537Z,22.7
2018-05-19T10:48:33.654Z,22.6
2018-05-19T10:49:34.387Z,22.4
2018-05-19T10:50:35.391Z,22.3
2018-05-19T10:51:36.983Z,22.3
2018-05-19T10:52:38.581Z,21.9
2018-05-19T10:53:39.317Z,21.5
2018-05-19T10:54:40.055Z,21.4
2018-05-19T10:55:40.788Z,21.3
2018-05-19T10:56:41.509Z,21.4
2018-05-19T10:57:42.241Z,21.5
2018-05-19T10:58:43.036Z,21.3
2018-05-19T10:59:43.758Z,21.2
2018-05-19T11:00:44.498Z,21.0
2018-05-19T11:01:45.254Z,20.8
2018-05-19T11:02:45.995Z,20.6
2018-05-19T11:03:46.735Z,20.4
2018-05-19T11:04:47.869Z,20.6
2018-05-19T11:05:48.612Z,20.8
2018-05-19T11:06:49.346Z,20.9
2018-05-19T11:07:50.076Z,20.7
2018-05-19T11:08:50.808Z,20.8
2018-05-19T11:09:51.778Z,20.9
2018-05-19T11:10:52.398Z,21.2
2018-05-19T11:11:53.390Z,21.4
2018-05-19T11:12:54.118Z,21.5
2018-05-19T11:13:55.159Z,21.6
2018-05-19T11:14:55.984Z,21.5
2018-05-19T11:15:56.725Z,22.0
2018-05-19T11:16:57.470Z,22.2
2018-05-19T11:17:58.199Z,22.2
2018-05-19T11:18:59.230Z,22.3
2018-05-19T11:20:00.523Z,22.2
2018-05-19T11:21:01.248Z,22.3
2018-05-19T11:22:01.970Z,22.4
2018-05-19T11:23:02.697Z,22.4
2018-05-19T11:24:03.447Z,22.4
2018-05-19T11:25:04.731Z,22.6
2018-05-19T11:26:05.864Z,22.6
2018-05-19T11:27:06.614Z,22.5
2018-05-19T11:28:07.450Z,22.3
2018-05-19T11:29:08.187Z,22.3
2018-05-19T11:30:09.171Z,22.2
2018-05-19T11:31:10.337Z,22.0
2018-05-19T11:32:11.505Z,22.0
2018-05-19T11:33:12.977Z,22.2
2018-05-19T11:34:13.916Z,22.3
2018-05-19T11:35:14.646Z,22.1
2018-05-19T11:36:15.476Z,22.2
2018-05-19T11:37:16.219Z,21.8
2018-05-19T11:38:16.966Z,21.6
2018-05-19T11:39:17.681Z,21.2
2018-05-19T11:40:19.477Z,20.8
2018-05-19T11:41:21.282Z,20.9
2018-05-19T11:42:22.451Z,20.6
2018-05-19T11:43:24.046Z,20.5
2018-05-19T11:44:25.229Z,20.5
2018-05-19T11:45:25.921Z,20.4
2018-05-19T11:46:27.087Z,20.3
2018-05-19T11:47:27.804Z,20.3
2018-05-19T11:48:28.545Z,20.3
2018-05-19T11:49:29.289Z,20.2
2018-05-19T11:50:30.013Z,20.2
2018-05-19T11:51:31.031Z,20.1
2018-05-19T11:52:31.786Z,19.9
2018-05-19T11:53:32.531Z,19.8
2018-05-19T11:54:33.274Z,19.7
2018-05-19T11:55:34.106Z,19.5
2018-05-19T11:56:34.857Z,19.4
2018-05-19T11:57:35.733Z,19.4
2018-05-19T11:58:36.461Z,19.4
2018-05-19T11:59:37.193Z,19.2
2018-05-19T12:00:37.920Z,19.0
2018-05-19T12:01:38.669Z,19.0
2018-05-19T12:02:39.427Z,19.0
2018-05-19T12:03:40.451Z,18.9
2018-05-19T12:04:41.178Z,19.0
2018-05-19T12:05:41.967Z,19.0
2018-05-19T12:06:42.639Z,18.8
2018-05-19T12:07:43.373Z,19.0
2018-05-19T12:08:44.511Z,19.0
2018-05-19T12:09:45.282Z,19.2
2018-05-19T12:10:46.032Z,19.2
2018-05-19T12:11:46.839Z,19.5
2018-05-19T12:12:47.497Z,19.5
2018-05-19T12:13:48.337Z,19.4
2018-05-19T12:14:49.327Z,19.4
2018-05-19T12:15:50.073Z,19.6
2018-05-19T12:16:50.800Z,19.6
2018-05-19T12:17:51.774Z,19.6
2018-05-19T12:18:52.502Z,19.6
2018-05-19T12:19:53.635Z,19.7
2018-05-19T12:20:54.349Z,19.5
2018-05-19T12:21:55.092Z,19.6
2018-05-19T12:22:55.911Z,19.6
2018-05-19T12:23:56.576Z,19.8
2018-05-19T12:24:57.309Z,19.9
2018-05-19T12:25:58.280Z,20.2
2018-05-19T12:26:59.261Z,20.3
2018-05-19T12:27:59.992Z,20.5
2018-05-19T12:29:01.368Z,20.4
2018-05-19T12:30:02.184Z,20.6
2018-05-19T12:31:02.954Z,20.8
2018-05-19T12:32:03.806Z,20.8
2018-05-19T12:33:04.534Z,20.8
2018-05-19T12:34:05.367Z,20.8
2018-05-19T12:35:06.495Z,20.8
2018-05-19T12:36:07.402Z,20.7
2018-05-19T12:37:08.571Z,20.6
2018-05-19T12:38:09.300Z,20.6
2018-05-19T12:39:10.492Z,20.6
2018-05-19T12:40:11.257Z,20.8
2018-05-19T12:41:11.987Z,20.5
2018-05-19T12:42:12.742Z,20.6
2018-05-19T12:43:13.491Z,20.8
2018-05-19T12:44:14.316Z,20.4
2018-05-19T12:45:15.041Z,20.3
2018-05-19T12:46:15.788Z,20.2
2018-05-19T12:47:16.513Z,20.1
2018-05-19T12:48:17.570Z,20.0
2018-05-19T12:49:18.402Z,19.9
2018-05-19T12:50:19.154Z,20.0
2018-05-19T12:51:19.983Z,20.1
2018-05-19T12:52:20.741Z,20.2
2018-05-19T12:53:21.463Z,20.4
2018-05-19T12:54:22.307Z,20.5
2018-05-19T12:55:23.299Z,20.6
2018-05-19T12:56:24.033Z,20.9
2018-05-19T12:57:24.760Z,20.9
2018-05-19T12:58:25.491Z,21.0
2018-05-19T12:59:26.271Z,21.1
2018-05-19T13:00:27.005Z,21.2
2018-05-19T13:01:27.753Z,21.3
2018-05-19T13:02:28.493Z,21.5
2018-05-19T13:03:29.261Z,21.5
2018-05-19T13:04:30.008Z,21.5
2018-05-19T13:05:30.745Z,21.4
2018-05-19T13:06:31.470Z,21.2
2018-05-19T13:07:32.214Z,20.6
2018-05-19T13:08:32.956Z,20.4
2018-05-19T13:09:33.696Z,20.4
2018-05-19T13:10:34.432Z,20.4
2018-05-19T13:11:35.453Z,20.2
2018-05-19T13:12:36.245Z,20.2
2018-05-19T13:13:36.910Z,20.4
2018-05-19T13:14:37.657Z,20.2
2018-05-19T13:15:38.377Z,20.2
2018-05-19T13:16:39.368Z,20.3
2018-05-19T13:17:40.104Z,20.4
2018-05-19T13:18:40.838Z,20.4
2018-05-19T13:19:41.627Z,20.6
2018-05-19T13:20:42.355Z,20.4
2018-05-19T13:21:43.115Z,20.4
2018-05-19T13:22:43.845Z,20.5
2018-05-19T13:23:44.582Z,20.6
2018-05-19T13:24:45.313Z,20.8
2018-05-19T13:25:46.146Z,20.9
2018-05-19T13:26:46.784Z,20.9
2018-05-19T13:27:47.533Z,21.0
2018-05-19T13:28:48.256Z,21.0
2018-05-19T13:29:48.991Z,21.0
2018-05-19T13:30:49.842Z,21.2
2018-05-19T13:31:50.576Z,20.8
2018-05-19T13:32:51.314Z,21.0
2018-05-19T13:33:52.110Z,20.9
2018-05-19T13:34:52.786Z,20.9
2018-05-19T13:35:53.795Z,21.1
2018-05-19T13:36:55.041Z,20.9
2018-05-19T13:37:55.830Z,21.2
2018-05-19T13:38:56.581Z,21.2
2018-05-19T13:39:57.318Z,21.4